sensor_id;sensor_type;location;lat;lon;timestamp;P1;durP1;ratioP1;P2;durP2;ratioP2
795;SDS011;381;48.770;9.188;2024-02-21T00:00:14;0.80;;;0.80;;
795;SDS011;381;48.770;9.188;2024-02-21T00:05:17;0.50;;;0.50;;
795;SDS011;381;48.770;9.188;2024-02-21T00:10:20;0.60;;;0.60;;
795;SDS011;381;48.770;9.188;2024-02-21T00:15:24;0.80;;;0.80;;
795;SDS011;381;48.770;9.188;2024-02-21T00:20:26;0.67;;;0.67;;
795;SDS011;381;48.770;9.188;2024-02-21T00:25:28;0.70;;;0.70;;
795;SDS011;381;48.770;9.188;2024-02-21T00:30:32;0.60;;;0.60;;
795;SDS011;381;48.770;9.188;2024-02-21T00:35:34;0.50;;;0.50;;
795;SDS011;381;48.770;9.188;2024-02-21T00:40:37;0.60;;;0.60;;
795;SDS011;381;48.770;9.188;2024-02-21T00:45:40;0.60;;;0.60;;
795;SDS011;381;48.770;9.188;2024-02-21T00:50:43;0.50;;;0.50;;
795;SDS011;381;48.770;9.188;2024-02-21T00:55:46;0.50;;;0.50;;
795;SDS011;381;48.770;9.188;2024-02-21T01:00:49;0.50;;;0.50;;
795;SDS011;381;48.770;9.188;2024-02-21T01:05:52;0.50;;;0.50;;
795;SDS011;381;48.770;9.188;2024-02-21T01:10:54;0.57;;;0.57;;
795;SDS011;381;48.770;9.188;2024-02-21T01:15:58;0.60;;;0.60;;
795;SDS011;381;48.770;9.188;2024-02-21T01:21:00;0.50;;;0.50;;
795;SDS011;381;48.770;9.188;2024-02-21T01:26:03;0.50;;;0.50;;
795;SDS011;381;48.770;9.188;2024-02-21T01:31:07;0.50;;;0.50;;
795;SDS011;381;48.770;9.188;2024-02-21T01:36:09;0.50;;;0.50;;
795;SDS011;381;48.770;9.188;2024-02-21T01:41:11;0.60;;;0.60;;
795;SDS011;381;48.770;9.188;2024-02-21T01:46:15;0.53;;;0.53;;
795;SDS011;381;48.770;9.188;2024-02-21T01:51:17;0.50;;;0.50;;
795;SDS011;381;48.770;9.188;2024-02-21T01:56:20;0.40;;;0.40;;
795;SDS011;381;48.770;9.188;2024-02-21T02:01:25;0.43;;;0.43;;
795;SDS011;381;48.770;9.188;2024-02-21T02:06:27;0.40;;;0.40;;
795;SDS011;381;48.770;9.188;2024-02-21T02:11:31;0.50;;;0.50;;
795;SDS011;381;48.770;9.188;2024-02-21T02:16:35;0.50;;;0.50;;
795;SDS011;381;48.770;9.188;2024-02-21T02:21:38;0.50;;;0.50;;
795;SDS011;381;48.770;9.188;2024-02-21T02:26:45;0.40;;;0.40;;
795;SDS011;381;48.770;9.188;2024-02-21T02:31:48;0.50;;;0.50;;
795;SDS011;381;48.770;9.188;2024-02-21T02:36:51;0.50;;;0.50;;
795;SDS011;381;48.770;9.188;2024-02-21T02:41:56;0.40;;;0.40;;
795;SDS011;381;48.770;9.188;2024-02-21T02:46:58;0.40;;;0.40;;
795;SDS011;381;48.770;9.188;2024-02-21T02:52:01;0.43;;;0.43;;
795;SDS011;381;48.770;9.188;2024-02-21T02:57:05;0.47;;;0.47;;
795;SDS011;381;48.770;9.188;2024-02-21T03:02:07;0.50;;;0.50;;
795;SDS011;381;48.770;9.188;2024-02-21T03:07:10;0.50;;;0.50;;
795;SDS011;381;48.770;9.188;2024-02-21T03:12:14;0.60;;;0.60;;
795;SDS011;381;48.770;9.188;2024-02-21T03:17:24;0.70;;;0.70;;
795;SDS011;381;48.770;9.188;2024-02-21T03:22:27;0.70;;;0.70;;
795;SDS011;381;48.770;9.188;2024-02-21T03:27:31;0.70;;;0.70;;
795;SDS011;381;48.770;9.188;2024-02-21T03:32:33;0.60;;;0.60;;
795;SDS011;381;48.770;9.188;2024-02-21T03:37:36;0.67;;;0.67;;
795;SDS011;381;48.770;9.188;2024-02-21T03:42:39;0.60;;;0.60;;
795;SDS011;381;48.770;9.188;2024-02-21T03:47:42;0.60;;;0.60;;
795;SDS011;381;48.770;9.188;2024-02-21T03:52:44;0.63;;;0.63;;
795;SDS011;381;48.770;9.188;2024-02-21T03:57:48;0.60;;;0.60;;
795;SDS011;381;48.770;9.188;2024-02-21T04:02:50;0.50;;;0.50;;
795;SDS011;381;48.770;9.188;2024-02-21T04:07:53;0.70;;;0.70;;
795;SDS011;381;48.770;9.188;2024-02-21T04:12:56;0.90;;;0.90;;
795;SDS011;381;48.770;9.188;2024-02-21T04:17:59;0.90;;;0.90;;
795;SDS011;381;48.770;9.188;2024-02-21T04:23:01;0.70;;;0.70;;
795;SDS011;381;48.770;9.188;2024-02-21T04:28:05;0.60;;;0.60;;
795;SDS011;381;48.770;9.188;2024-02-21T04:33:07;0.60;;;0.60;;
795;SDS011;381;48.770;9.188;2024-02-21T04:38:10;0.70;;;0.70;;
795;SDS011;381;48.770;9.188;2024-02-21T04:43:13;0.60;;;0.60;;
795;SDS011;381;48.770;9.188;2024-02-21T04:48:16;0.50;;;0.50;;
795;SDS011;381;48.770;9.188;2024-02-21T04:53:19;0.60;;;0.60;;
795;SDS011;381;48.770;9.188;2024-02-21T04:58:22;0.70;;;0.70;;
795;SDS011;381;48.770;9.188;2024-02-21T05:03:26;0.87;;;0.87;;
795;SDS011;381;48.770;9.188;2024-02-21T05:08:28;0.80;;;0.80;;
795;SDS011;381;48.770;9.188;2024-02-21T05:13:32;0.80;;;0.80;;
795;SDS011;381;48.770;9.188;2024-02-21T05:18:34;0.70;;;0.70;;
795;SDS011;381;48.770;9.188;2024-02-21T05:23:36;0.70;;;0.70;;
795;SDS011;381;48.770;9.188;2024-02-21T05:28:41;0.60;;;0.60;;
795;SDS011;381;48.770;9.188;2024-02-21T05:33:43;0.70;;;0.70;;
795;SDS011;381;48.770;9.188;2024-02-21T05:38:46;0.63;;;0.63;;
795;SDS011;381;48.770;9.188;2024-02-21T05:43:50;0.70;;;0.70;;
795;SDS011;381;48.770;9.188;2024-02-21T05:48:52;0.60;;;0.60;;
795;SDS011;381;48.770;9.188;2024-02-21T05:53:54;0.50;;;0.50;;
795;SDS011;381;48.770;9.188;2024-02-21T05:58:58;0.50;;;0.50;;
795;SDS011;381;48.770;9.188;2024-02-21T06:04:00;0.50;;;0.50;;
795;SDS011;381;48.770;9.188;2024-02-21T06:09:03;0.57;;;0.57;;
795;SDS011;381;48.770;9.188;2024-02-21T06:14:07;0.60;;;0.60;;
795;SDS011;381;48.770;9.188;2024-02-21T06:19:09;0.60;;;0.60;;
795;SDS011;381;48.770;9.188;2024-02-21T06:24:11;0.50;;;0.50;;
795;SDS011;381;48.770;9.188;2024-02-21T06:29:15;0.60;;;0.60;;
795;SDS011;381;48.770;9.188;2024-02-21T06:34:18;0.50;;;0.50;;
795;SDS011;381;48.770;9.188;2024-02-21T06:39:20;0.50;;;0.50;;
795;SDS011;381;48.770;9.188;2024-02-21T06:44:25;0.50;;;0.50;;
795;SDS011;381;48.770;9.188;2024-02-21T06:49:29;0.60;;;0.60;;
795;SDS011;381;48.770;9.188;2024-02-21T06:54:31;0.57;;;0.57;;
795;SDS011;381;48.770;9.188;2024-02-21T06:59:35;0.50;;;0.50;;
795;SDS011;381;48.770;9.188;2024-02-21T07:04:37;0.50;;;0.50;;
795;SDS011;381;48.770;9.188;2024-02-21T07:09:39;0.50;;;0.50;;
795;SDS011;381;48.770;9.188;2024-02-21T07:14:44;0.50;;;0.50;;
795;SDS011;381;48.770;9.188;2024-02-21T07:19:46;0.60;;;0.60;;
795;SDS011;381;48.770;9.188;2024-02-21T07:24:48;0.60;;;0.60;;
795;SDS011;381;48.770;9.188;2024-02-21T07:29:52;0.50;;;0.50;;
795;SDS011;381;48.770;9.188;2024-02-21T07:34:54;0.60;;;0.60;;
795;SDS011;381;48.770;9.188;2024-02-21T07:39:57;0.50;;;0.50;;
795;SDS011;381;48.770;9.188;2024-02-21T07:45:00;0.50;;;0.50;;
795;SDS011;381;48.770;9.188;2024-02-21T07:50:04;0.50;;;0.50;;
795;SDS011;381;48.770;9.188;2024-02-21T07:55:07;0.50;;;0.50;;
795;SDS011;381;48.770;9.188;2024-02-21T08:00:12;0.50;;;0.50;;
795;SDS011;381;48.770;9.188;2024-02-21T08:05:20;0.40;;;0.40;;
795;SDS011;381;48.770;9.188;2024-02-21T08:10:22;0.40;;;0.40;;
795;SDS011;381;48.770;9.188;2024-02-21T08:15:26;0.50;;;0.50;;
795;SDS011;381;48.770;9.188;2024-02-21T08:20:30;0.40;;;0.40;;
795;SDS011;381;48.770;9.188;2024-02-21T08:25:32;0.40;;;0.40;;
795;SDS011;381;48.770;9.188;2024-02-21T08:30:36;0.30;;;0.30;;
795;SDS011;381;48.770;9.188;2024-02-21T08:35:38;0.40;;;0.40;;
795;SDS011;381;48.770;9.188;2024-02-21T08:40:41;0.27;;;0.27;;
795;SDS011;381;48.770;9.188;2024-02-21T08:45:44;0.30;;;0.30;;
795;SDS011;381;48.770;9.188;2024-02-21T08:50:47;0.20;;;0.20;;
795;SDS011;381;48.770;9.188;2024-02-21T08:55:49;0.40;;;0.40;;
795;SDS011;381;48.770;9.188;2024-02-21T09:00:53;0.30;;;0.30;;
795;SDS011;381;48.770;9.188;2024-02-21T09:05:55;0.30;;;0.30;;
795;SDS011;381;48.770;9.188;2024-02-21T09:10:58;0.30;;;0.30;;
795;SDS011;381;48.770;9.188;2024-02-21T09:16:03;0.30;;;0.30;;
795;SDS011;381;48.770;9.188;2024-02-21T09:21:06;0.30;;;0.30;;
795;SDS011;381;48.770;9.188;2024-02-21T09:26:09;0.30;;;0.30;;
795;SDS011;381;48.770;9.188;2024-02-21T09:31:15;0.30;;;0.30;;
795;SDS011;381;48.770;9.188;2024-02-21T09:36:19;0.30;;;0.30;;
795;SDS011;381;48.770;9.188;2024-02-21T09:41:23;0.33;;;0.33;;
795;SDS011;381;48.770;9.188;2024-02-21T09:46:30;0.20;;;0.20;;
795;SDS011;381;48.770;9.188;2024-02-21T09:51:41;0.20;;;0.20;;
795;SDS011;381;48.770;9.188;2024-02-21T09:56:45;0.30;;;0.30;;
795;SDS011;381;48.770;9.188;2024-02-21T10:01:49;0.30;;;0.30;;
795;SDS011;381;48.770;9.188;2024-02-21T10:06:53;0.30;;;0.30;;
795;SDS011;381;48.770;9.188;2024-02-21T10:11:56;0.23;;;0.23;;
795;SDS011;381;48.770;9.188;2024-02-21T10:17:14;0.30;;;0.30;;
795;SDS011;381;48.770;9.188;2024-02-21T10:22:19;0.30;;;0.30;;
795;SDS011;381;48.770;9.188;2024-02-21T10:27:23;0.30;;;0.30;;
795;SDS011;381;48.770;9.188;2024-02-21T10:32:27;0.40;;;0.40;;
795;SDS011;381;48.770;9.188;2024-02-21T10:37:30;0.40;;;0.40;;
795;SDS011;381;48.770;9.188;2024-02-21T10:42:33;0.30;;;0.30;;
795;SDS011;381;48.770;9.188;2024-02-21T10:47:41;0.40;;;0.40;;
795;SDS011;381;48.770;9.188;2024-02-21T10:52:51;0.30;;;0.30;;
795;SDS011;381;48.770;9.188;2024-02-21T10:58:05;0.30;;;0.30;;
795;SDS011;381;48.770;9.188;2024-02-21T11:03:09;0.30;;;0.30;;
795;SDS011;381;48.770;9.188;2024-02-21T11:08:11;0.30;;;0.30;;
795;SDS011;381;48.770;9.188;2024-02-21T11:13:14;0.40;;;0.40;;
795;SDS011;381;48.770;9.188;2024-02-21T11:18:24;0.30;;;0.30;;
795;SDS011;381;48.770;9.188;2024-02-21T11:23:26;0.40;;;0.40;;
795;SDS011;381;48.770;9.188;2024-02-21T11:28:29;0.33;;;0.33;;
795;SDS011;381;48.770;9.188;2024-02-21T11:33:32;0.40;;;0.40;;
795;SDS011;381;48.770;9.188;2024-02-21T11:38:35;0.40;;;0.40;;
795;SDS011;381;48.770;9.188;2024-02-21T11:43:38;0.40;;;0.40;;
795;SDS011;381;48.770;9.188;2024-02-21T11:48:43;0.30;;;0.30;;
795;SDS011;381;48.770;9.188;2024-02-21T11:53:51;0.30;;;0.30;;
795;SDS011;381;48.770;9.188;2024-02-21T11:58:53;0.30;;;0.30;;
795;SDS011;381;48.770;9.188;2024-02-21T12:03:57;0.30;;;0.30;;
795;SDS011;381;48.770;9.188;2024-02-21T12:08:59;0.30;;;0.30;;
795;SDS011;381;48.770;9.188;2024-02-21T12:14:03;0.30;;;0.30;;
795;SDS011;381;48.770;9.188;2024-02-21T12:19:07;0.30;;;0.30;;
795;SDS011;381;48.770;9.188;2024-02-21T12:24:13;0.30;;;0.30;;
795;SDS011;381;48.770;9.188;2024-02-21T12:29:16;0.30;;;0.30;;
795;SDS011;381;48.770;9.188;2024-02-21T12:34:20;0.30;;;0.30;;
795;SDS011;381;48.770;9.188;2024-02-21T12:39:24;0.30;;;0.30;;
795;SDS011;381;48.770;9.188;2024-02-21T12:44:28;0.30;;;0.30;;
795;SDS011;381;48.770;9.188;2024-02-21T12:49:31;0.30;;;0.30;;
795;SDS011;381;48.770;9.188;2024-02-21T12:54:34;0.30;;;0.30;;
795;SDS011;381;48.770;9.188;2024-02-21T12:59:36;0.30;;;0.30;;
795;SDS011;381;48.770;9.188;2024-02-21T13:04:40;0.30;;;0.30;;
795;SDS011;381;48.770;9.188;2024-02-21T13:09:42;0.20;;;0.20;;
795;SDS011;381;48.770;9.188;2024-02-21T13:14:45;0.20;;;0.20;;
795;SDS011;381;48.770;9.188;2024-02-21T13:19:49;0.30;;;0.30;;
795;SDS011;381;48.770;9.188;2024-02-21T13:24:51;0.30;;;0.30;;
795;SDS011;381;48.770;9.188;2024-02-21T13:29:54;0.30;;;0.30;;
795;SDS011;381;48.770;9.188;2024-02-21T13:34:57;0.30;;;0.30;;
795;SDS011;381;48.770;9.188;2024-02-21T13:40:02;0.20;;;0.20;;
795;SDS011;381;48.770;9.188;2024-02-21T13:45:05;0.30;;;0.30;;
795;SDS011;381;48.770;9.188;2024-02-21T13:50:10;0.30;;;0.30;;
795;SDS011;381;48.770;9.188;2024-02-21T13:55:13;0.30;;;0.30;;
795;SDS011;381;48.770;9.188;2024-02-21T14:00:15;0.20;;;0.20;;
795;SDS011;381;48.770;9.188;2024-02-21T14:05:20;0.23;;;0.23;;
795;SDS011;381;48.770;9.188;2024-02-21T14:10:22;0.23;;;0.23;;
795;SDS011;381;48.770;9.188;2024-02-21T14:15:25;0.20;;;0.20;;
795;SDS011;381;48.770;9.188;2024-02-21T14:20:28;0.30;;;0.30;;
795;SDS011;381;48.770;9.188;2024-02-21T14:25:31;0.30;;;0.30;;
795;SDS011;381;48.770;9.188;2024-02-21T14:30:34;0.30;;;0.30;;
795;SDS011;381;48.770;9.188;2024-02-21T14:35:38;0.40;;;0.40;;
795;SDS011;381;48.770;9.188;2024-02-21T14:40:40;0.40;;;0.40;;
795;SDS011;381;48.770;9.188;2024-02-21T14:45:43;0.40;;;0.40;;
795;SDS011;381;48.770;9.188;2024-02-21T14:50:49;0.40;;;0.40;;
795;SDS011;381;48.770;9.188;2024-02-21T14:55:51;0.40;;;0.40;;
795;SDS011;381;48.770;9.188;2024-02-21T15:00:54;0.40;;;0.40;;
795;SDS011;381;48.770;9.188;2024-02-21T15:05:57;0.40;;;0.40;;
795;SDS011;381;48.770;9.188;2024-02-21T15:11:00;0.40;;;0.40;;
795;SDS011;381;48.770;9.188;2024-02-21T15:16:03;0.40;;;0.40;;
795;SDS011;381;48.770;9.188;2024-02-21T15:21:08;0.40;;;0.40;;
795;SDS011;381;48.770;9.188;2024-02-21T15:26:14;0.30;;;0.30;;
795;SDS011;381;48.770;9.188;2024-02-21T15:31:21;0.40;;;0.40;;
795;SDS011;381;48.770;9.188;2024-02-21T15:36:25;0.40;;;0.40;;
795;SDS011;381;48.770;9.188;2024-02-21T15:41:29;0.40;;;0.40;;
795;SDS011;381;48.770;9.188;2024-02-21T15:46:31;0.40;;;0.40;;
795;SDS011;381;48.770;9.188;2024-02-21T15:51:35;0.40;;;0.40;;
795;SDS011;381;48.770;9.188;2024-02-21T15:56:40;0.43;;;0.43;;
795;SDS011;381;48.770;9.188;2024-02-21T16:01:43;0.40;;;0.40;;
795;SDS011;381;48.770;9.188;2024-02-21T16:06:46;0.40;;;0.40;;
795;SDS011;381;48.770;9.188;2024-02-21T16:11:51;0.40;;;0.40;;
795;SDS011;381;48.770;9.188;2024-02-21T16:16:55;0.40;;;0.40;;
795;SDS011;381;48.770;9.188;2024-02-21T16:21:59;0.40;;;0.40;;
795;SDS011;381;48.770;9.188;2024-02-21T16:27:02;0.40;;;0.40;;
795;SDS011;381;48.770;9.188;2024-02-21T16:32:09;0.40;;;0.40;;
795;SDS011;381;48.770;9.188;2024-02-21T16:37:13;0.30;;;0.30;;
795;SDS011;381;48.770;9.188;2024-02-21T16:42:15;0.40;;;0.40;;
795;SDS011;381;48.770;9.188;2024-02-21T16:47:18;0.40;;;0.40;;
795;SDS011;381;48.770;9.188;2024-02-21T16:52:21;0.40;;;0.40;;
795;SDS011;381;48.770;9.188;2024-02-21T16:57:24;0.40;;;0.40;;
795;SDS011;381;48.770;9.188;2024-02-21T17:02:26;0.40;;;0.40;;
795;SDS011;381;48.770;9.188;2024-02-21T17:07:30;0.40;;;0.40;;
795;SDS011;381;48.770;9.188;2024-02-21T17:12:33;0.40;;;0.40;;
795;SDS011;381;48.770;9.188;2024-02-21T17:17:37;0.40;;;0.40;;
795;SDS011;381;48.770;9.188;2024-02-21T17:22:40;0.40;;;0.40;;
795;SDS011;381;48.770;9.188;2024-02-21T17:27:43;0.40;;;0.40;;
795;SDS011;381;48.770;9.188;2024-02-21T17:32:45;0.50;;;0.50;;
795;SDS011;381;48.770;9.188;2024-02-21T17:37:49;0.40;;;0.40;;
795;SDS011;381;48.770;9.188;2024-02-21T17:42:51;0.50;;;0.50;;
795;SDS011;381;48.770;9.188;2024-02-21T17:47:54;0.40;;;0.40;;
795;SDS011;381;48.770;9.188;2024-02-21T17:52:57;0.50;;;0.50;;
795;SDS011;381;48.770;9.188;2024-02-21T17:58:00;0.50;;;0.50;;
795;SDS011;381;48.770;9.188;2024-02-21T18:03:03;0.40;;;0.40;;
795;SDS011;381;48.770;9.188;2024-02-21T18:08:07;0.50;;;0.50;;
795;SDS011;381;48.770;9.188;2024-02-21T18:13:10;0.50;;;0.50;;
795;SDS011;381;48.770;9.188;2024-02-21T18:18:13;0.60;;;0.60;;
795;SDS011;381;48.770;9.188;2024-02-21T18:23:16;0.53;;;0.53;;
795;SDS011;381;48.770;9.188;2024-02-21T18:28:19;0.40;;;0.40;;
795;SDS011;381;48.770;9.188;2024-02-21T18:33:21;0.50;;;0.50;;
795;SDS011;381;48.770;9.188;2024-02-21T18:38:25;0.50;;;0.50;;
795;SDS011;381;48.770;9.188;2024-02-21T18:43:29;0.50;;;0.50;;
795;SDS011;381;48.770;9.188;2024-02-21T18:48:32;0.60;;;0.60;;
795;SDS011;381;48.770;9.188;2024-02-21T18:53:36;0.50;;;0.50;;
795;SDS011;381;48.770;9.188;2024-02-21T18:58:38;0.50;;;0.50;;
795;SDS011;381;48.770;9.188;2024-02-21T19:03:40;0.40;;;0.40;;
795;SDS011;381;48.770;9.188;2024-02-21T19:08:44;0.50;;;0.50;;
795;SDS011;381;48.770;9.188;2024-02-21T19:13:47;0.50;;;0.50;;
795;SDS011;381;48.770;9.188;2024-02-21T19:18:49;0.50;;;0.50;;
795;SDS011;381;48.770;9.188;2024-02-21T19:23:53;0.50;;;0.50;;
795;SDS011;381;48.770;9.188;2024-02-21T19:28:55;0.50;;;0.50;;
795;SDS011;381;48.770;9.188;2024-02-21T19:33:58;0.50;;;0.50;;
795;SDS011;381;48.770;9.188;2024-02-21T19:39:01;0.50;;;0.50;;
795;SDS011;381;48.770;9.188;2024-02-21T19:44:04;0.50;;;0.50;;
795;SDS011;381;48.770;9.188;2024-02-21T19:49:07;0.50;;;0.50;;
795;SDS011;381;48.770;9.188;2024-02-21T19:54:10;0.50;;;0.50;;
795;SDS011;381;48.770;9.188;2024-02-21T19:59:13;0.50;;;0.50;;
795;SDS011;381;48.770;9.188;2024-02-21T20:04:16;0.50;;;0.50;;
795;SDS011;381;48.770;9.188;2024-02-21T20:09:20;0.40;;;0.40;;
795;SDS011;381;48.770;9.188;2024-02-21T20:14:22;0.50;;;0.50;;
795;SDS011;381;48.770;9.188;2024-02-21T20:19:24;0.50;;;0.50;;
795;SDS011;381;48.770;9.188;2024-02-21T20:24:28;0.50;;;0.50;;
795;SDS011;381;48.770;9.188;2024-02-21T20:29:30;0.40;;;0.40;;
795;SDS011;381;48.770;9.188;2024-02-21T20:34:33;0.50;;;0.50;;
795;SDS011;381;48.770;9.188;2024-02-21T20:39:37;0.50;;;0.50;;
795;SDS011;381;48.770;9.188;2024-02-21T20:44:40;0.40;;;0.40;;
795;SDS011;381;48.770;9.188;2024-02-21T20:49:42;0.50;;;0.50;;
795;SDS011;381;48.770;9.188;2024-02-21T20:54:46;0.50;;;0.50;;
795;SDS011;381;48.770;9.188;2024-02-21T20:59:48;0.50;;;0.50;;
795;SDS011;381;48.770;9.188;2024-02-21T21:04:51;0.50;;;0.50;;
795;SDS011;381;48.770;9.188;2024-02-21T21:09:55;0.50;;;0.50;;
795;SDS011;381;48.770;9.188;2024-02-21T21:14:58;0.50;;;0.50;;
795;SDS011;381;48.770;9.188;2024-02-21T21:20:00;0.50;;;0.50;;
795;SDS011;381;48.770;9.188;2024-02-21T21:25:07;0.50;;;0.50;;
795;SDS011;381;48.770;9.188;2024-02-21T21:30:10;0.50;;;0.50;;
795;SDS011;381;48.770;9.188;2024-02-21T21:35:13;0.40;;;0.40;;
795;SDS011;381;48.770;9.188;2024-02-21T21:40:17;0.40;;;0.40;;
795;SDS011;381;48.770;9.188;2024-02-21T21:45:20;0.30;;;0.30;;
795;SDS011;381;48.770;9.188;2024-02-21T21:50:23;0.37;;;0.37;;
795;SDS011;381;48.770;9.188;2024-02-21T21:55:27;0.30;;;0.30;;
795;SDS011;381;48.770;9.188;2024-02-21T22:00:30;0.40;;;0.40;;
795;SDS011;381;48.770;9.188;2024-02-21T22:05:32;0.40;;;0.40;;
795;SDS011;381;48.770;9.188;2024-02-21T22:10:36;0.40;;;0.40;;
795;SDS011;381;48.770;9.188;2024-02-21T22:15:38;0.40;;;0.40;;
795;SDS011;381;48.770;9.188;2024-02-21T22:20:41;0.40;;;0.40;;
795;SDS011;381;48.770;9.188;2024-02-21T22:25:45;0.40;;;0.40;;
795;SDS011;381;48.770;9.188;2024-02-21T22:30:49;0.40;;;0.40;;
795;SDS011;381;48.770;9.188;2024-02-21T22:35:51;0.40;;;0.40;;
795;SDS011;381;48.770;9.188;2024-02-21T22:40:55;0.50;;;0.50;;
795;SDS011;381;48.770;9.188;2024-02-21T22:45:57;0.40;;;0.40;;
795;SDS011;381;48.770;9.188;2024-02-21T22:51:00;0.40;;;0.40;;
795;SDS011;381;48.770;9.188;2024-02-21T22:56:04;0.30;;;0.30;;
795;SDS011;381;48.770;9.188;2024-02-21T23:01:09;0.37;;;0.37;;
795;SDS011;381;48.770;9.188;2024-02-21T23:06:12;0.40;;;0.40;;
795;SDS011;381;48.770;9.188;2024-02-21T23:11:15;0.40;;;0.40;;
795;SDS011;381;48.770;9.188;2024-02-21T23:16:18;0.30;;;0.30;;
795;SDS011;381;48.770;9.188;2024-02-21T23:21:20;0.30;;;0.30;;
795;SDS011;381;48.770;9.188;2024-02-21T23:26:28;0.40;;;0.40;;
795;SDS011;381;48.770;9.188;2024-02-21T23:31:31;0.40;;;0.40;;
795;SDS011;381;48.770;9.188;2024-02-21T23:36:34;0.50;;;0.50;;
795;SDS011;381;48.770;9.188;2024-02-21T23:41:38;0.40;;;0.40;;
795;SDS011;381;48.770;9.188;2024-02-21T23:46:40;0.40;;;0.40;;
795;SDS011;381;48.770;9.188;2024-02-21T23:51:42;0.40;;;0.40;;
795;SDS011;381;48.770;9.188;2024-02-21T23:56:46;0.40;;;0.40;;
